Airfield :
LOGIN :

Register | Disclaimer

   EN    FR    IT 

 










Legend :    VFR   Marginal VFR   IFR   Intensive IFR   Very Intensive IFR
Visi :
Ceiling :
>= 8 km
>= 3000ft
5 to 8 km
1000 to 3000 ft
1500m to 5 km
500 to 1000 ft
800 to 1500m
200 to 500 ft
< 800m
< 200 ft
Symbols :   Thunderstorms  Fog  Heavy snow  Heavy precipitations  Wind > 20 kt
SIGMETs :     Misc.  Thunderstorms  Icing  Turbulence  Mountain Waves  Volcanic Ashes







- Airport Elevation : 1411 ft
- IATA code : SZG


LOWS - Salzburg

CURRENT METAR :
  • 262350Z AUTO VRB02KT 9999 //////CB SCT110 BKN220 20/15 Q1011

EXPIRED METARs :
  • 262320Z AUTO 31004KT 270V030 9999 VCTS //////CB FEW090 BKN100 20/15 Q1011
  • 262250Z AUTO 14003KT 110V190 9999 //////CB FEW100 19/15 Q1011
  • 262220Z AUTO VRB04KT 9999 //////CB FEW110 SCT250 19/15 Q1011
  • 262150Z AUTO 15003KT 9999 //////CB SCT250 20/15 Q1011
  • 262120Z 18004KT 9999 FEW100 BKN300 21/15 Q1011 NOSIG

TAF TAF LOWS
Valid from the 27 at 00:00 until the 28 at 00:00 UTC


262315Z 2700/2724 16005KT 9999 FEW070 SCT120 TX25/2715Z TN17/2724Z
TEMPO 2702/2709 29006KT -SHRA SCT060TCU BKN100
PROB30
TEMPO 2702/2706 29015G25KT TSRA SCT050CB BKN080
BECMG 2706/2708 34007KT
TEMPO 2713/2718 29013KT SHRA SCT060TCU BKN080
PROB30
TEMPO 2714/2717 31015G25KT TSRA SCT050CB BKN070
BECMG 2718/2720 16005KT
No reported NOTAMs for that airfield.



MET'MAP, your aeronautical weather chart ! - Copyright ORBIFLY December 2007 - Disclaimer

ORBIFLY MET'MAP TEAM :

Programming & Development : Alexandra Zaïnal
Concept & Development : Baudouin d'Aumeries
Co-Development & Prog : Marc-Olivier Méhu
Technical & hardware support : Manuel Goepfert

Contact : metmap@orbifly.com




SOURCES & CREDITS :

   NOAA